sensor_id;sensor_type;location;lat;lon;timestamp;temperature;humidity
7846;DHT22;3968;51.424;6.788;2023-08-08T00:00:37;15.60;99.90
7846;DHT22;3968;51.424;6.788;2023-08-08T00:03:03;15.60;99.90
7846;DHT22;3968;51.424;6.788;2023-08-08T00:05:29;15.50;99.90
7846;DHT22;3968;51.424;6.788;2023-08-08T00:07:54;15.50;99.90
7846;DHT22;3968;51.424;6.788;2023-08-08T00:10:20;15.50;99.90
7846;DHT22;3968;51.424;6.788;2023-08-08T00:12:45;15.50;99.90
7846;DHT22;3968;51.424;6.788;2023-08-08T00:15:11;15.50;99.90
7846;DHT22;3968;51.424;6.788;2023-08-08T00:17:37;15.50;99.90
7846;DHT22;3968;51.424;6.788;2023-08-08T00:20:03;15.50;99.90
7846;DHT22;3968;51.424;6.788;2023-08-08T00:22:29;15.50;99.90
7846;DHT22;3968;51.424;6.788;2023-08-08T00:24:54;15.50;99.90
7846;DHT22;3968;51.424;6.788;2023-08-08T00:27:20;15.50;99.90
7846;DHT22;3968;51.424;6.788;2023-08-08T00:29:46;15.50;99.90
7846;DHT22;3968;51.424;6.788;2023-08-08T00:32:11;15.50;99.90
7846;DHT22;3968;51.424;6.788;2023-08-08T00:34:38;15.40;99.90
7846;DHT22;3968;51.424;6.788;2023-08-08T00:37:03;15.40;99.90
7846;DHT22;3968;51.424;6.788;2023-08-08T00:39:29;15.40;99.90
7846;DHT22;3968;51.424;6.788;2023-08-08T00:41:54;15.40;99.90
7846;DHT22;3968;51.424;6.788;2023-08-08T00:44:20;15.40;99.90
7846;DHT22;3968;51.424;6.788;2023-08-08T00:46:46;15.40;99.90
7846;DHT22;3968;51.424;6.788;2023-08-08T00:49:11;15.40;99.90
7846;DHT22;3968;51.424;6.788;2023-08-08T00:51:37;15.40;99.90
7846;DHT22;3968;51.424;6.788;2023-08-08T00:54:03;15.40;99.90
7846;DHT22;3968;51.424;6.788;2023-08-08T00:56:30;15.40;99.90
7846;DHT22;3968;51.424;6.788;2023-08-08T00:58:56;15.40;99.90
7846;DHT22;3968;51.424;6.788;2023-08-08T01:01:21;15.40;99.90
7846;DHT22;3968;51.424;6.788;2023-08-08T01:03:47;15.40;99.90
7846;DHT22;3968;51.424;6.788;2023-08-08T01:06:38;15.40;99.90
7846;DHT22;3968;51.424;6.788;2023-08-08T01:09:09;15.40;99.90
7846;DHT22;3968;51.424;6.788;2023-08-08T01:11:37;15.40;99.90
7846;DHT22;3968;51.424;6.788;2023-08-08T01:14:05;15.40;99.90
7846;DHT22;3968;51.424;6.788;2023-08-08T01:16:33;15.30;99.90
7846;DHT22;3968;51.424;6.788;2023-08-08T01:18:58;15.30;99.90
7846;DHT22;3968;51.424;6.788;2023-08-08T01:21:26;15.30;99.90
7846;DHT22;3968;51.424;6.788;2023-08-08T01:23:56;15.30;99.90
7846;DHT22;3968;51.424;6.788;2023-08-08T01:26:24;15.30;99.90
7846;DHT22;3968;51.424;6.788;2023-08-08T01:28:53;15.20;99.90
7846;DHT22;3968;51.424;6.788;2023-08-08T01:31:20;15.20;99.90
7846;DHT22;3968;51.424;6.788;2023-08-08T01:33:45;15.20;99.90
7846;DHT22;3968;51.424;6.788;2023-08-08T01:36:35;15.20;99.90
7846;DHT22;3968;51.424;6.788;2023-08-08T01:39:06;15.10;99.90
7846;DHT22;3968;51.424;6.788;2023-08-08T01:41:36;15.10;99.90
7846;DHT22;3968;51.424;6.788;2023-08-08T01:44:03;15.10;99.90
7846;DHT22;3968;51.424;6.788;2023-08-08T01:46:29;15.10;99.90
7846;DHT22;3968;51.424;6.788;2023-08-08T01:48:58;15.10;99.90
7846;DHT22;3968;51.424;6.788;2023-08-08T01:51:24;15.20;99.90
7846;DHT22;3968;51.424;6.788;2023-08-08T01:53:51;15.10;99.90
7846;DHT22;3968;51.424;6.788;2023-08-08T01:56:16;15.10;99.90
7846;DHT22;3968;51.424;6.788;2023-08-08T01:58:42;15.20;99.90
7846;DHT22;3968;51.424;6.788;2023-08-08T02:01:07;15.20;99.90
7846;DHT22;3968;51.424;6.788;2023-08-08T02:03:33;15.20;99.90
7846;DHT22;3968;51.424;6.788;2023-08-08T02:05:58;15.20;99.90
7846;DHT22;3968;51.424;6.788;2023-08-08T02:08:24;15.20;99.90
7846;DHT22;3968;51.424;6.788;2023-08-08T02:10:50;15.20;99.90
7846;DHT22;3968;51.424;6.788;2023-08-08T02:13:16;15.20;99.90
7846;DHT22;3968;51.424;6.788;2023-08-08T02:15:41;15.10;99.90
7846;DHT22;3968;51.424;6.788;2023-08-08T02:18:07;15.20;99.90
7846;DHT22;3968;51.424;6.788;2023-08-08T02:20:34;15.20;99.90
7846;DHT22;3968;51.424;6.788;2023-08-08T02:23:00;15.20;99.90
7846;DHT22;3968;51.424;6.788;2023-08-08T02:25:25;15.20;99.90
7846;DHT22;3968;51.424;6.788;2023-08-08T02:27:51;15.10;99.90
7846;DHT22;3968;51.424;6.788;2023-08-08T02:30:17;15.20;99.90
7846;DHT22;3968;51.424;6.788;2023-08-08T02:32:42;15.20;99.90
7846;DHT22;3968;51.424;6.788;2023-08-08T02:35:08;15.20;99.90
7846;DHT22;3968;51.424;6.788;2023-08-08T02:37:34;15.20;99.90
7846;DHT22;3968;51.424;6.788;2023-08-08T02:39:59;15.20;99.90
7846;DHT22;3968;51.424;6.788;2023-08-08T02:42:25;15.20;99.90
7846;DHT22;3968;51.424;6.788;2023-08-08T02:44:51;15.20;99.90
7846;DHT22;3968;51.424;6.788;2023-08-08T02:47:16;15.20;99.90
7846;DHT22;3968;51.424;6.788;2023-08-08T02:49:42;15.20;99.90
7846;DHT22;3968;51.424;6.788;2023-08-08T02:52:07;15.20;99.90
7846;DHT22;3968;51.424;6.788;2023-08-08T02:54:33;15.20;99.90
7846;DHT22;3968;51.424;6.788;2023-08-08T02:56:58;15.20;99.90
7846;DHT22;3968;51.424;6.788;2023-08-08T02:59:24;15.20;99.90
7846;DHT22;3968;51.424;6.788;2023-08-08T03:01:50;15.20;99.90
7846;DHT22;3968;51.424;6.788;2023-08-08T03:04:16;15.20;99.90
7846;DHT22;3968;51.424;6.788;2023-08-08T03:06:41;15.10;99.90
7846;DHT22;3968;51.424;6.788;2023-08-08T03:09:07;15.10;99.90
7846;DHT22;3968;51.424;6.788;2023-08-08T03:11:32;15.10;99.90
7846;DHT22;3968;51.424;6.788;2023-08-08T03:13:58;15.10;99.90
7846;DHT22;3968;51.424;6.788;2023-08-08T03:16:24;15.10;99.90
7846;DHT22;3968;51.424;6.788;2023-08-08T03:18:49;15.10;99.90
7846;DHT22;3968;51.424;6.788;2023-08-08T03:21:15;15.10;99.90
7846;DHT22;3968;51.424;6.788;2023-08-08T03:23:41;15.10;99.90
7846;DHT22;3968;51.424;6.788;2023-08-08T03:26:06;15.10;99.90
7846;DHT22;3968;51.424;6.788;2023-08-08T03:28:32;15.10;99.90
7846;DHT22;3968;51.424;6.788;2023-08-08T03:30:57;15.10;99.90
7846;DHT22;3968;51.424;6.788;2023-08-08T03:33:23;15.10;99.90
7846;DHT22;3968;51.424;6.788;2023-08-08T03:35:49;15.00;99.90
7846;DHT22;3968;51.424;6.788;2023-08-08T03:38:14;15.00;99.90
7846;DHT22;3968;51.424;6.788;2023-08-08T03:40:40;15.00;99.90
7846;DHT22;3968;51.424;6.788;2023-08-08T03:43:05;15.00;99.90
7846;DHT22;3968;51.424;6.788;2023-08-08T03:45:31;15.00;99.90
7846;DHT22;3968;51.424;6.788;2023-08-08T03:47:57;14.90;99.90
7846;DHT22;3968;51.424;6.788;2023-08-08T03:50:22;14.90;99.90
7846;DHT22;3968;51.424;6.788;2023-08-08T03:52:48;14.90;99.90
7846;DHT22;3968;51.424;6.788;2023-08-08T03:55:13;14.90;99.90
7846;DHT22;3968;51.424;6.788;2023-08-08T03:57:39;14.90;99.90
7846;DHT22;3968;51.424;6.788;2023-08-08T04:00:05;14.90;99.90
7846;DHT22;3968;51.424;6.788;2023-08-08T04:02:33;14.90;99.90
7846;DHT22;3968;51.424;6.788;2023-08-08T04:04:59;14.90;99.90
7846;DHT22;3968;51.424;6.788;2023-08-08T04:07:24;14.80;99.90
7846;DHT22;3968;51.424;6.788;2023-08-08T04:09:50;14.90;99.90
7846;DHT22;3968;51.424;6.788;2023-08-08T04:12:16;14.90;99.90
7846;DHT22;3968;51.424;6.788;2023-08-08T04:14:41;14.90;99.90
7846;DHT22;3968;51.424;6.788;2023-08-08T04:17:07;14.90;99.90
7846;DHT22;3968;51.424;6.788;2023-08-08T04:19:32;14.90;99.90
7846;DHT22;3968;51.424;6.788;2023-08-08T04:21:58;14.90;99.90
7846;DHT22;3968;51.424;6.788;2023-08-08T04:24:25;14.90;99.90
7846;DHT22;3968;51.424;6.788;2023-08-08T04:26:51;14.90;99.90
7846;DHT22;3968;51.424;6.788;2023-08-08T04:29:16;14.90;99.90
7846;DHT22;3968;51.424;6.788;2023-08-08T04:31:42;14.90;99.90
7846;DHT22;3968;51.424;6.788;2023-08-08T04:34:07;14.90;99.90
7846;DHT22;3968;51.424;6.788;2023-08-08T04:36:33;14.90;99.90
7846;DHT22;3968;51.424;6.788;2023-08-08T04:38:58;14.90;99.90
7846;DHT22;3968;51.424;6.788;2023-08-08T04:41:24;15.00;99.90
7846;DHT22;3968;51.424;6.788;2023-08-08T04:43:50;14.90;99.90
7846;DHT22;3968;51.424;6.788;2023-08-08T04:46:15;15.00;99.90
7846;DHT22;3968;51.424;6.788;2023-08-08T04:48:41;15.00;99.90
7846;DHT22;3968;51.424;6.788;2023-08-08T04:51:09;15.00;99.90
7846;DHT22;3968;51.424;6.788;2023-08-08T04:53:34;15.00;99.90
7846;DHT22;3968;51.424;6.788;2023-08-08T04:56:00;15.00;99.90
7846;DHT22;3968;51.424;6.788;2023-08-08T04:58:26;15.00;99.90
7846;DHT22;3968;51.424;6.788;2023-08-08T05:00:51;15.00;99.90
7846;DHT22;3968;51.424;6.788;2023-08-08T05:03:17;15.00;99.90
7846;DHT22;3968;51.424;6.788;2023-08-08T05:05:43;15.00;99.90
7846;DHT22;3968;51.424;6.788;2023-08-08T05:08:11;15.00;99.90
7846;DHT22;3968;51.424;6.788;2023-08-08T05:10:36;15.00;99.90
7846;DHT22;3968;51.424;6.788;2023-08-08T05:13:02;15.00;99.90
7846;DHT22;3968;51.424;6.788;2023-08-08T05:15:28;15.10;99.90
7846;DHT22;3968;51.424;6.788;2023-08-08T05:17:53;15.00;99.90
7846;DHT22;3968;51.424;6.788;2023-08-08T05:20:20;15.00;99.90
7846;DHT22;3968;51.424;6.788;2023-08-08T05:22:46;15.10;99.90
7846;DHT22;3968;51.424;6.788;2023-08-08T05:25:12;15.10;99.90
7846;DHT22;3968;51.424;6.788;2023-08-08T05:27:37;15.10;99.90
7846;DHT22;3968;51.424;6.788;2023-08-08T05:30:04;15.10;99.90
7846;DHT22;3968;51.424;6.788;2023-08-08T05:32:30;15.10;99.90
7846;DHT22;3968;51.424;6.788;2023-08-08T05:34:56;15.10;99.90
7846;DHT22;3968;51.424;6.788;2023-08-08T05:37:23;15.20;99.90
7846;DHT22;3968;51.424;6.788;2023-08-08T05:39:48;15.20;99.90
7846;DHT22;3968;51.424;6.788;2023-08-08T05:42:14;15.20;99.90
7846;DHT22;3968;51.424;6.788;2023-08-08T05:44:40;15.20;99.90
7846;DHT22;3968;51.424;6.788;2023-08-08T05:47:07;15.20;99.90
7846;DHT22;3968;51.424;6.788;2023-08-08T05:49:33;15.20;99.90
7846;DHT22;3968;51.424;6.788;2023-08-08T05:51:59;15.20;99.90
7846;DHT22;3968;51.424;6.788;2023-08-08T05:54:24;15.20;99.90
7846;DHT22;3968;51.424;6.788;2023-08-08T05:56:50;15.20;99.90
7846;DHT22;3968;51.424;6.788;2023-08-08T05:59:16;15.20;99.90
7846;DHT22;3968;51.424;6.788;2023-08-08T06:01:41;15.30;99.90
7846;DHT22;3968;51.424;6.788;2023-08-08T06:04:07;15.30;99.90
7846;DHT22;3968;51.424;6.788;2023-08-08T06:06:33;15.30;99.90
7846;DHT22;3968;51.424;6.788;2023-08-08T06:08:58;15.30;99.90
7846;DHT22;3968;51.424;6.788;2023-08-08T06:11:24;15.30;99.90
7846;DHT22;3968;51.424;6.788;2023-08-08T06:13:50;15.30;99.90
7846;DHT22;3968;51.424;6.788;2023-08-08T06:16:15;15.40;99.90
7846;DHT22;3968;51.424;6.788;2023-08-08T06:18:41;15.40;99.90
7846;DHT22;3968;51.424;6.788;2023-08-08T06:21:07;15.40;99.90
7846;DHT22;3968;51.424;6.788;2023-08-08T06:23:32;15.40;99.90
7846;DHT22;3968;51.424;6.788;2023-08-08T06:25:58;15.50;99.90
7846;DHT22;3968;51.424;6.788;2023-08-08T06:28:24;15.50;99.90
7846;DHT22;3968;51.424;6.788;2023-08-08T06:30:49;15.50;99.90
7846;DHT22;3968;51.424;6.788;2023-08-08T06:33:15;15.60;99.90
7846;DHT22;3968;51.424;6.788;2023-08-08T06:35:41;15.60;99.90
7846;DHT22;3968;51.424;6.788;2023-08-08T06:38:07;15.60;99.90
7846;DHT22;3968;51.424;6.788;2023-08-08T06:40:34;15.70;99.90
7846;DHT22;3968;51.424;6.788;2023-08-08T06:42:59;15.70;99.90
7846;DHT22;3968;51.424;6.788;2023-08-08T06:45:25;15.80;99.90
7846;DHT22;3968;51.424;6.788;2023-08-08T06:47:51;15.80;99.90
7846;DHT22;3968;51.424;6.788;2023-08-08T06:50:16;15.80;99.90
7846;DHT22;3968;51.424;6.788;2023-08-08T06:52:42;15.80;99.90
7846;DHT22;3968;51.424;6.788;2023-08-08T06:55:08;15.90;99.90
7846;DHT22;3968;51.424;6.788;2023-08-08T06:57:34;15.90;99.90
7846;DHT22;3968;51.424;6.788;2023-08-08T07:00:00;15.90;99.90
7846;DHT22;3968;51.424;6.788;2023-08-08T07:02:26;15.90;99.90
7846;DHT22;3968;51.424;6.788;2023-08-08T07:04:52;16.00;99.90
7846;DHT22;3968;51.424;6.788;2023-08-08T07:07:17;16.10;99.90
7846;DHT22;3968;51.424;6.788;2023-08-08T07:09:43;16.20;99.90
7846;DHT22;3968;51.424;6.788;2023-08-08T07:12:09;16.20;99.90
7846;DHT22;3968;51.424;6.788;2023-08-08T07:14:34;16.20;99.90
7846;DHT22;3968;51.424;6.788;2023-08-08T07:17:00;16.20;99.90
7846;DHT22;3968;51.424;6.788;2023-08-08T07:19:28;16.10;99.90
7846;DHT22;3968;51.424;6.788;2023-08-08T07:21:53;16.20;99.90
7846;DHT22;3968;51.424;6.788;2023-08-08T07:24:19;16.20;99.90
7846;DHT22;3968;51.424;6.788;2023-08-08T07:26:46;16.30;99.90
7846;DHT22;3968;51.424;6.788;2023-08-08T07:29:11;16.40;99.90
7846;DHT22;3968;51.424;6.788;2023-08-08T07:31:37;16.60;99.90
7846;DHT22;3968;51.424;6.788;2023-08-08T07:34:02;16.80;99.90
7846;DHT22;3968;51.424;6.788;2023-08-08T07:36:28;17.00;99.90
7846;DHT22;3968;51.424;6.788;2023-08-08T07:38:54;17.10;99.90
7846;DHT22;3968;51.424;6.788;2023-08-08T07:41:25;17.20;99.90
7846;DHT22;3968;51.424;6.788;2023-08-08T07:43:52;17.30;99.90
7846;DHT22;3968;51.424;6.788;2023-08-08T07:46:17;17.40;99.90
7846;DHT22;3968;51.424;6.788;2023-08-08T07:48:43;17.40;99.90
7846;DHT22;3968;51.424;6.788;2023-08-08T07:51:08;17.50;99.90
7846;DHT22;3968;51.424;6.788;2023-08-08T07:53:34;17.50;99.90
7846;DHT22;3968;51.424;6.788;2023-08-08T07:56:00;17.50;99.90
7846;DHT22;3968;51.424;6.788;2023-08-08T07:58:25;17.50;99.90
7846;DHT22;3968;51.424;6.788;2023-08-08T08:00:52;17.40;99.90
7846;DHT22;3968;51.424;6.788;2023-08-08T08:03:19;17.50;99.90
7846;DHT22;3968;51.424;6.788;2023-08-08T08:05:45;17.50;99.90
7846;DHT22;3968;51.424;6.788;2023-08-08T08:08:11;17.50;99.90
7846;DHT22;3968;51.424;6.788;2023-08-08T08:10:36;17.60;99.90
7846;DHT22;3968;51.424;6.788;2023-08-08T08:13:02;17.60;99.90
7846;DHT22;3968;51.424;6.788;2023-08-08T08:15:28;17.70;99.90
7846;DHT22;3968;51.424;6.788;2023-08-08T08:17:54;17.70;99.90
7846;DHT22;3968;51.424;6.788;2023-08-08T08:20:20;17.70;99.90
7846;DHT22;3968;51.424;6.788;2023-08-08T08:22:45;17.80;99.90
7846;DHT22;3968;51.424;6.788;2023-08-08T08:25:12;17.80;99.90
7846;DHT22;3968;51.424;6.788;2023-08-08T08:27:38;17.70;99.90
7846;DHT22;3968;51.424;6.788;2023-08-08T08:30:05;17.80;99.90
7846;DHT22;3968;51.424;6.788;2023-08-08T08:32:34;17.80;99.90
7846;DHT22;3968;51.424;6.788;2023-08-08T08:35:02;17.80;99.90
7846;DHT22;3968;51.424;6.788;2023-08-08T08:37:29;17.90;99.90
7846;DHT22;3968;51.424;6.788;2023-08-08T08:39:55;17.90;99.90
7846;DHT22;3968;51.424;6.788;2023-08-08T08:42:21;17.90;99.90
7846;DHT22;3968;51.424;6.788;2023-08-08T08:44:47;17.90;99.90
7846;DHT22;3968;51.424;6.788;2023-08-08T08:47:17;17.90;99.90
7846;DHT22;3968;51.424;6.788;2023-08-08T08:49:45;17.90;99.90
7846;DHT22;3968;51.424;6.788;2023-08-08T08:52:11;18.10;99.90
7846;DHT22;3968;51.424;6.788;2023-08-08T08:54:37;18.10;99.90
7846;DHT22;3968;51.424;6.788;2023-08-08T08:57:04;18.10;99.90
7846;DHT22;3968;51.424;6.788;2023-08-08T08:59:30;18.10;99.90
7846;DHT22;3968;51.424;6.788;2023-08-08T09:01:56;18.20;99.90
7846;DHT22;3968;51.424;6.788;2023-08-08T09:04:22;18.30;99.90
7846;DHT22;3968;51.424;6.788;2023-08-08T09:06:49;18.30;99.90
7846;DHT22;3968;51.424;6.788;2023-08-08T09:09:15;18.40;99.90
7846;DHT22;3968;51.424;6.788;2023-08-08T09:11:46;18.50;99.90
7846;DHT22;3968;51.424;6.788;2023-08-08T09:14:20;18.50;99.90
7846;DHT22;3968;51.424;6.788;2023-08-08T09:16:47;18.60;99.90
7846;DHT22;3968;51.424;6.788;2023-08-08T09:19:13;18.60;99.90
7846;DHT22;3968;51.424;6.788;2023-08-08T09:21:39;18.70;99.90
7846;DHT22;3968;51.424;6.788;2023-08-08T09:24:05;18.70;99.90
7846;DHT22;3968;51.424;6.788;2023-08-08T09:26:31;18.70;99.90
7846;DHT22;3968;51.424;6.788;2023-08-08T09:28:56;18.60;99.90
7846;DHT22;3968;51.424;6.788;2023-08-08T09:31:25;18.60;99.90
7846;DHT22;3968;51.424;6.788;2023-08-08T09:33:51;18.50;99.90
7846;DHT22;3968;51.424;6.788;2023-08-08T09:36:17;18.40;99.90
7846;DHT22;3968;51.424;6.788;2023-08-08T09:38:45;18.30;99.90
7846;DHT22;3968;51.424;6.788;2023-08-08T09:41:11;18.30;99.90
7846;DHT22;3968;51.424;6.788;2023-08-08T09:43:37;18.30;99.90
7846;DHT22;3968;51.424;6.788;2023-08-08T09:46:03;18.30;99.90
7846;DHT22;3968;51.424;6.788;2023-08-08T09:48:32;18.30;99.90
7846;DHT22;3968;51.424;6.788;2023-08-08T09:50:58;18.40;99.90
7846;DHT22;3968;51.424;6.788;2023-08-08T09:53:26;18.50;99.90
7846;DHT22;3968;51.424;6.788;2023-08-08T09:55:54;18.50;99.90
7846;DHT22;3968;51.424;6.788;2023-08-08T09:58:20;18.50;99.90
7846;DHT22;3968;51.424;6.788;2023-08-08T10:00:46;18.60;99.90
7846;DHT22;3968;51.424;6.788;2023-08-08T10:03:13;18.50;99.90
7846;DHT22;3968;51.424;6.788;2023-08-08T10:05:39;18.50;99.90
7846;DHT22;3968;51.424;6.788;2023-08-08T10:08:05;18.50;99.90
7846;DHT22;3968;51.424;6.788;2023-08-08T10:10:31;18.60;99.90
7846;DHT22;3968;51.424;6.788;2023-08-08T10:12:57;18.70;99.90
7846;DHT22;3968;51.424;6.788;2023-08-08T10:15:27;18.70;99.90
7846;DHT22;3968;51.424;6.788;2023-08-08T10:17:58;18.80;99.90
7846;DHT22;3968;51.424;6.788;2023-08-08T10:20:26;18.80;99.90
7846;DHT22;3968;51.424;6.788;2023-08-08T10:22:54;18.90;99.90
7846;DHT22;3968;51.424;6.788;2023-08-08T10:25:23;18.90;99.90
7846;DHT22;3968;51.424;6.788;2023-08-08T10:28:00;19.00;99.90
7846;DHT22;3968;51.424;6.788;2023-08-08T10:30:26;19.00;99.90
7846;DHT22;3968;51.424;6.788;2023-08-08T10:32:52;19.10;99.90
7846;DHT22;3968;51.424;6.788;2023-08-08T10:35:21;19.20;99.90
7846;DHT22;3968;51.424;6.788;2023-08-08T10:37:53;19.20;99.90
7846;DHT22;3968;51.424;6.788;2023-08-08T10:40:19;19.20;99.90
7846;DHT22;3968;51.424;6.788;2023-08-08T10:42:46;19.20;99.90
7846;DHT22;3968;51.424;6.788;2023-08-08T10:45:15;19.20;99.90
7846;DHT22;3968;51.424;6.788;2023-08-08T10:47:41;19.30;99.90
7846;DHT22;3968;51.424;6.788;2023-08-08T10:50:11;19.50;99.90
7846;DHT22;3968;51.424;6.788;2023-08-08T10:55:23;19.50;99.90
7846;DHT22;3968;51.424;6.788;2023-08-08T10:58:08;19.40;99.90
7846;DHT22;3968;51.424;6.788;2023-08-08T11:00:35;19.20;99.90
7846;DHT22;3968;51.424;6.788;2023-08-08T11:03:02;19.20;99.90
7846;DHT22;3968;51.424;6.788;2023-08-08T11:05:32;19.10;99.90
7846;DHT22;3968;51.424;6.788;2023-08-08T11:08:01;19.00;99.90
7846;DHT22;3968;51.424;6.788;2023-08-08T11:10:27;18.80;99.90
7846;DHT22;3968;51.424;6.788;2023-08-08T11:13:03;18.60;99.90
7846;DHT22;3968;51.424;6.788;2023-08-08T11:15:30;18.50;99.90
7846;DHT22;3968;51.424;6.788;2023-08-08T11:17:57;18.70;99.90
7846;DHT22;3968;51.424;6.788;2023-08-08T11:20:23;18.90;99.90
7846;DHT22;3968;51.424;6.788;2023-08-08T11:22:53;19.10;99.90
7846;DHT22;3968;51.424;6.788;2023-08-08T11:25:20;19.30;99.90
7846;DHT22;3968;51.424;6.788;2023-08-08T11:27:53;19.50;99.90
7846;DHT22;3968;51.424;6.788;2023-08-08T11:30:20;19.60;99.90
7846;DHT22;3968;51.424;6.788;2023-08-08T11:32:48;19.60;99.90
7846;DHT22;3968;51.424;6.788;2023-08-08T11:35:18;19.60;99.90
7846;DHT22;3968;51.424;6.788;2023-08-08T11:37:45;19.70;99.90
7846;DHT22;3968;51.424;6.788;2023-08-08T11:40:12;19.80;99.90
7846;DHT22;3968;51.424;6.788;2023-08-08T11:42:39;19.90;99.90
7846;DHT22;3968;51.424;6.788;2023-08-08T11:45:05;19.90;99.90
7846;DHT22;3968;51.424;6.788;2023-08-08T11:47:32;19.80;99.90
7846;DHT22;3968;51.424;6.788;2023-08-08T11:50:02;19.70;99.90
7846;DHT22;3968;51.424;6.788;2023-08-08T11:52:29;19.70;99.90
7846;DHT22;3968;51.424;6.788;2023-08-08T11:54:55;19.60;99.90
7846;DHT22;3968;51.424;6.788;2023-08-08T11:57:23;19.60;99.90
7846;DHT22;3968;51.424;6.788;2023-08-08T11:59:49;19.70;99.90
7846;DHT22;3968;51.424;6.788;2023-08-08T12:02:16;19.70;99.90
7846;DHT22;3968;51.424;6.788;2023-08-08T12:04:45;19.70;99.90
7846;DHT22;3968;51.424;6.788;2023-08-08T12:07:11;19.60;99.90
7846;DHT22;3968;51.424;6.788;2023-08-08T12:09:37;19.60;99.90
7846;DHT22;3968;51.424;6.788;2023-08-08T12:12:04;19.60;99.90
7846;DHT22;3968;51.424;6.788;2023-08-08T12:14:35;19.70;99.90
7846;DHT22;3968;51.424;6.788;2023-08-08T12:17:01;19.80;99.90
7846;DHT22;3968;51.424;6.788;2023-08-08T12:19:27;20.00;99.90
7846;DHT22;3968;51.424;6.788;2023-08-08T12:21:54;20.10;99.90
7846;DHT22;3968;51.424;6.788;2023-08-08T12:24:19;20.20;99.90
7846;DHT22;3968;51.424;6.788;2023-08-08T12:26:45;20.20;99.90
7846;DHT22;3968;51.424;6.788;2023-08-08T12:29:11;20.20;99.90
7846;DHT22;3968;51.424;6.788;2023-08-08T12:31:37;20.20;99.90
7846;DHT22;3968;51.424;6.788;2023-08-08T12:34:03;20.00;99.90
7846;DHT22;3968;51.424;6.788;2023-08-08T12:36:30;19.90;99.90
7846;DHT22;3968;51.424;6.788;2023-08-08T12:38:55;19.70;99.90
7846;DHT22;3968;51.424;6.788;2023-08-08T12:41:22;19.60;99.90
7846;DHT22;3968;51.424;6.788;2023-08-08T12:43:47;19.70;99.90
7846;DHT22;3968;51.424;6.788;2023-08-08T12:46:13;19.70;99.90
7846;DHT22;3968;51.424;6.788;2023-08-08T12:48:39;19.90;99.90
7846;DHT22;3968;51.424;6.788;2023-08-08T12:51:05;19.90;99.90
7846;DHT22;3968;51.424;6.788;2023-08-08T12:53:34;19.90;99.90
7846;DHT22;3968;51.424;6.788;2023-08-08T12:56:00;19.90;99.90
7846;DHT22;3968;51.424;6.788;2023-08-08T12:58:25;19.90;99.90
7846;DHT22;3968;51.424;6.788;2023-08-08T13:00:51;20.00;99.90
7846;DHT22;3968;51.424;6.788;2023-08-08T13:03:17;20.20;99.90
7846;DHT22;3968;51.424;6.788;2023-08-08T13:05:43;20.30;99.90
7846;DHT22;3968;51.424;6.788;2023-08-08T13:08:09;20.40;99.90
7846;DHT22;3968;51.424;6.788;2023-08-08T13:10:35;20.50;99.90
7846;DHT22;3968;51.424;6.788;2023-08-08T13:13:01;20.60;99.90
7846;DHT22;3968;51.424;6.788;2023-08-08T13:15:27;20.60;99.90
7846;DHT22;3968;51.424;6.788;2023-08-08T13:17:52;20.70;99.90
7846;DHT22;3968;51.424;6.788;2023-08-08T13:20:18;20.70;99.90
7846;DHT22;3968;51.424;6.788;2023-08-08T13:22:44;20.80;99.90
7846;DHT22;3968;51.424;6.788;2023-08-08T13:25:09;20.60;99.90
7846;DHT22;3968;51.424;6.788;2023-08-08T13:27:35;20.50;99.90
7846;DHT22;3968;51.424;6.788;2023-08-08T13:30:02;20.40;99.90
7846;DHT22;3968;51.424;6.788;2023-08-08T13:32:28;20.50;99.90
7846;DHT22;3968;51.424;6.788;2023-08-08T13:34:53;20.30;99.90
7846;DHT22;3968;51.424;6.788;2023-08-08T13:37:19;20.40;99.90
7846;DHT22;3968;51.424;6.788;2023-08-08T13:39:45;20.40;99.90
7846;DHT22;3968;51.424;6.788;2023-08-08T13:42:10;20.40;96.50
7846;DHT22;3968;51.424;6.788;2023-08-08T13:44:36;20.30;91.50
7846;DHT22;3968;51.424;6.788;2023-08-08T13:47:02;20.20;81.50
7846;DHT22;3968;51.424;6.788;2023-08-08T13:49:27;20.10;90.20
7846;DHT22;3968;51.424;6.788;2023-08-08T13:51:54;20.30;91.50
7846;DHT22;3968;51.424;6.788;2023-08-08T13:54:20;20.20;96.30
7846;DHT22;3968;51.424;6.788;2023-08-08T13:56:46;20.30;98.40
7846;DHT22;3968;51.424;6.788;2023-08-08T13:59:11;20.30;99.10
7846;DHT22;3968;51.424;6.788;2023-08-08T14:01:37;20.40;97.20
7846;DHT22;3968;51.424;6.788;2023-08-08T14:04:03;20.40;94.80
7846;DHT22;3968;51.424;6.788;2023-08-08T14:06:29;20.50;90.30
7846;DHT22;3968;51.424;6.788;2023-08-08T14:08:56;20.40;90.50
7846;DHT22;3968;51.424;6.788;2023-08-08T14:11:22;20.30;92.10
7846;DHT22;3968;51.424;6.788;2023-08-08T14:13:47;20.20;95.90
7846;DHT22;3968;51.424;6.788;2023-08-08T14:16:13;20.10;97.70
7846;DHT22;3968;51.424;6.788;2023-08-08T14:18:39;20.00;98.00
7846;DHT22;3968;51.424;6.788;2023-08-08T14:21:04;19.90;95.80
7846;DHT22;3968;51.424;6.788;2023-08-08T14:23:31;19.80;99.60
7846;DHT22;3968;51.424;6.788;2023-08-08T14:25:56;19.80;99.90
7846;DHT22;3968;51.424;6.788;2023-08-08T14:28:22;19.90;99.90
7846;DHT22;3968;51.424;6.788;2023-08-08T14:30:48;20.00;99.90
7846;DHT22;3968;51.424;6.788;2023-08-08T14:33:15;20.20;99.90
7846;DHT22;3968;51.424;6.788;2023-08-08T14:35:42;20.40;99.90
7846;DHT22;3968;51.424;6.788;2023-08-08T14:38:08;20.60;99.90
7846;DHT22;3968;51.424;6.788;2023-08-08T14:40:33;20.60;99.90
7846;DHT22;3968;51.424;6.788;2023-08-08T14:43:00;20.60;96.60
7846;DHT22;3968;51.424;6.788;2023-08-08T14:45:27;20.60;91.20
7846;DHT22;3968;51.424;6.788;2023-08-08T14:47:52;20.70;91.40
7846;DHT22;3968;51.424;6.788;2023-08-08T14:50:18;20.60;59.40
7846;DHT22;3968;51.424;6.788;2023-08-08T14:52:44;20.40;59.70
7846;DHT22;3968;51.424;6.788;2023-08-08T14:55:10;20.50;55.00
7846;DHT22;3968;51.424;6.788;2023-08-08T14:57:36;20.60;53.30
7846;DHT22;3968;51.424;6.788;2023-08-08T15:00:02;20.80;48.30
7846;DHT22;3968;51.424;6.788;2023-08-08T15:02:27;21.00;48.80
7846;DHT22;3968;51.424;6.788;2023-08-08T15:04:53;21.00;44.90
7846;DHT22;3968;51.424;6.788;2023-08-08T15:07:19;20.90;39.00
7846;DHT22;3968;51.424;6.788;2023-08-08T15:09:45;20.90;42.60
7846;DHT22;3968;51.424;6.788;2023-08-08T15:12:14;21.00;38.80
7846;DHT22;3968;51.424;6.788;2023-08-08T15:14:39;21.10;35.50
7846;DHT22;3968;51.424;6.788;2023-08-08T15:17:05;21.20;36.90
7846;DHT22;3968;51.424;6.788;2023-08-08T15:19:31;21.30;40.40
7846;DHT22;3968;51.424;6.788;2023-08-08T15:21:56;21.50;40.30
7846;DHT22;3968;51.424;6.788;2023-08-08T15:24:22;21.50;41.50
7846;DHT22;3968;51.424;6.788;2023-08-08T15:26:47;21.40;43.10
7846;DHT22;3968;51.424;6.788;2023-08-08T15:29:13;21.40;46.90
7846;DHT22;3968;51.424;6.788;2023-08-08T15:31:38;21.40;47.00
7846;DHT22;3968;51.424;6.788;2023-08-08T15:34:05;21.40;39.40
7846;DHT22;3968;51.424;6.788;2023-08-08T15:36:30;21.20;37.70
7846;DHT22;3968;51.424;6.788;2023-08-08T15:38:56;21.10;36.40
7846;DHT22;3968;51.424;6.788;2023-08-08T15:41:22;20.90;32.40
7846;DHT22;3968;51.424;6.788;2023-08-08T15:43:47;20.80;32.00
7846;DHT22;3968;51.424;6.788;2023-08-08T15:46:13;20.80;32.80
7846;DHT22;3968;51.424;6.788;2023-08-08T15:48:39;20.90;31.60
7846;DHT22;3968;51.424;6.788;2023-08-08T15:51:04;20.70;35.40
7846;DHT22;3968;51.424;6.788;2023-08-08T15:53:30;20.70;43.10
7846;DHT22;3968;51.424;6.788;2023-08-08T15:55:56;20.70;49.70
7846;DHT22;3968;51.424;6.788;2023-08-08T15:58:22;20.70;59.70